Time;durP1;ratioP1;P1;durP2;ratioP2;P2;SDS_P1;SDS_P2;PMS_P1;PMS_P2;Temp;Humidity;BMP_temperature;BMP_pressure;BME280_temperature;BME280_humidity;BME280_pressure;Samples;Min_cycle;Max_cycle;Signal;HPM_P1;HPM_P2
2020/12/14 00:00:08;;;;;;;28.27;18.58;;;;;;;9.66;57.75;100934.38;4986290;28;97392;-67
2020/12/14 00:02:38;;;;;;;24.08;17.30;;;;;;;9.64;57.44;100936.00;4986850;28;97167;-66
2020/12/14 00:05:07;;;;;;;29.35;18.42;;;;;;;9.65;58.14;100942.16;4987102;28;97803;-67
2020/12/14 00:07:34;;;;;;;29.02;19.30;;;;;;;9.61;58.57;100948.97;4981337;28;99256;-67
2020/12/14 00:10:04;;;;;;;27.75;18.05;;;;;;;9.61;57.67;100948.03;4987222;28;97307;-68
2020/12/14 00:12:32;;;;;;;29.25;18.38;;;;;;;9.59;58.08;100949.66;4987606;28;96819;-67
2020/12/14 00:14:59;;;;;;;26.33;17.83;;;;;;;9.57;58.03;100952.19;4986344;28;98503;-67
2020/12/14 00:17:28;;;;;;;26.50;18.00;;;;;;;9.54;57.99;100944.16;4968375;28;98761;-68
2020/12/14 00:19:56;;;;;;;23.40;17.98;;;;;;;9.53;57.97;100944.03;4986319;28;97208;-68
2020/12/14 00:22:23;;;;;;;24.75;17.42;;;;;;;9.51;57.80;100948.28;4987823;28;97186;-69
2020/12/14 00:24:50;;;;;;;28.38;18.80;;;;;;;9.47;58.60;100944.59;4981404;28;97893;-67
2020/12/14 00:27:18;;;;;;;25.40;18.17;;;;;;;9.46;58.28;100944.50;4986961;28;97825;-67
2020/12/14 00:29:46;;;;;;;26.83;18.42;;;;;;;9.43;58.59;100946.94;4981990;28;96882;-68
2020/12/14 00:32:13;;;;;;;28.60;18.00;;;;;;;9.39;57.77;100953.72;4988771;28;96853;-67
2020/12/14 00:34:41;;;;;;;28.45;19.10;;;;;;;9.39;57.87;100955.44;4984258;28;97995;-68
2020/12/14 00:37:08;;;;;;;31.08;19.13;;;;;;;9.37;58.11;100954.44;4983500;28;97905;-68
2020/12/14 00:39:36;;;;;;;27.33;19.20;;;;;;;9.34;58.21;100942.06;4985632;28;97155;-68
2020/12/14 00:42:04;;;;;;;25.77;17.95;;;;;;;9.32;57.99;100942.78;4987639;28;98164;-68
2020/12/14 00:44:32;;;;;;;25.85;17.98;;;;;;;9.31;58.06;100930.47;4984162;28;99151;-68
2020/12/14 00:46:59;;;;;;;26.27;18.15;;;;;;;9.28;58.15;100928.59;4987740;28;98983;-68
2020/12/14 00:49:27;;;;;;;24.63;18.10;;;;;;;9.27;58.24;100921.50;4985693;28;97237;-69
2020/12/14 00:51:55;;;;;;;25.60;17.58;;;;;;;9.25;58.11;100928.41;4984938;28;97013;-68
2020/12/14 00:54:22;;;;;;;23.10;16.63;;;;;;;9.24;57.74;100931.81;4986985;28;97824;-66
2020/12/14 00:56:50;;;;;;;23.73;16.75;;;;;;;9.22;58.28;100930.81;4987404;28;97958;-68
2020/12/14 00:59:17;;;;;;;23.00;16.77;;;;;;;9.21;58.36;100918.53;4981708;28;97269;-68
2020/12/14 01:01:50;;;;;;;24.40;16.15;;;;;;;9.19;58.08;100914.94;4987244;28;97276;-68
2020/12/14 01:04:18;;;;;;;22.10;16.58;;;;;;;9.18;57.69;100906.16;4986677;28;98163;-68
2020/12/14 01:06:45;;;;;;;20.30;15.30;;;;;;;9.16;58.20;100904.22;4981828;28;97774;-68
2020/12/14 01:09:13;;;;;;;20.45;16.00;;;;;;;9.16;58.12;100909.47;4983792;28;98839;-68
2020/12/14 01:11:40;;;;;;;21.55;16.75;;;;;;;9.17;58.12;100900.81;4986368;28;97336;-68
2020/12/14 01:14:08;;;;;;;20.23;15.35;;;;;;;9.16;58.07;100892.03;4981817;28;99044;-67
2020/12/14 01:16:35;;;;;;;17.48;13.95;;;;;;;9.15;58.30;100891.97;4984039;28;96651;-68
2020/12/14 01:19:04;;;;;;;20.35;15.05;;;;;;;9.17;58.09;100887.72;4987026;28;97322;-68
2020/12/14 01:21:32;;;;;;;18.65;14.68;;;;;;;9.16;57.59;100891.13;4986803;28;97009;-68
2020/12/14 01:23:59;;;;;;;24.90;15.93;;;;;;;9.12;57.63;100884.81;4985588;28;97999;-68
2020/12/14 01:26:26;;;;;;;20.17;14.07;;;;;;;9.11;58.46;100898.72;4986054;28;97717;-68
2020/12/14 01:28:53;;;;;;;20.70;15.15;;;;;;;9.10;58.47;100899.53;4984470;28;97280;-68
2020/12/14 01:31:23;;;;;;;18.40;14.35;;;;;;;9.10;57.87;100899.53;4985175;28;97617;-68
2020/12/14 01:33:50;;;;;;;17.48;14.05;;;;;;;9.09;58.27;100904.69;4983751;28;97064;-68
2020/12/14 01:36:19;;;;;;;21.05;14.73;;;;;;;9.08;58.33;100910.75;4984020;28;99143;-67
2020/12/14 01:38:46;;;;;;;18.35;14.43;;;;;;;9.05;57.67;100911.44;5000217;28;97182;-68
2020/12/14 01:41:14;;;;;;;20.88;14.88;;;;;;;9.03;58.11;100918.31;4978332;28;97026;-66
2020/12/14 01:43:41;;;;;;;19.13;14.32;;;;;;;9.02;57.91;100924.38;4986000;28;99357;-67
2020/12/14 01:46:09;;;;;;;21.00;15.93;;;;;;;9.03;58.17;100938.38;4981629;28;98926;-67
2020/12/14 01:48:36;;;;;;;19.75;15.07;;;;;;;9.01;57.82;100954.00;4985238;28;96812;-66
2020/12/14 01:51:04;;;;;;;20.42;14.50;;;;;;;9.02;58.18;100953.19;4984387;28;97051;-66
2020/12/14 01:53:33;;;;;;;20.75;14.05;;;;;;;9.02;58.28;100947.03;4985682;28;97847;-68
2020/12/14 01:56:03;;;;;;;22.42;15.43;;;;;;;9.00;57.84;100959.13;4982816;28;98052;-66
2020/12/14 01:58:49;;;;;;;19.10;14.30;;;;;;;8.99;58.02;100970.44;4979018;28;96936;-67
2020/12/14 02:01:17;;;;;;;22.85;15.73;;;;;;;8.98;57.90;100974.78;4983506;28;97004;-66
2020/12/14 02:03:45;;;;;;;21.33;15.65;;;;;;;9.00;58.16;100970.53;4986126;28;99113;-67
2020/12/14 02:06:12;;;;;;;23.20;15.00;;;;;;;9.00;58.16;100959.13;4983341;28;99003;-66
2020/12/14 02:08:41;;;;;;;23.77;14.35;;;;;;;8.98;57.91;100955.50;4985290;28;97363;-66
2020/12/14 02:11:08;;;;;;;21.70;15.55;;;;;;;8.96;57.78;100951.88;4985883;28;97285;-65
2020/12/14 02:13:36;;;;;;;21.48;14.40;;;;;;;8.93;58.17;100944.78;4983502;28;97796;-66
2020/12/14 02:16:03;;;;;;;21.48;14.98;;;;;;;8.90;58.16;100936.72;4986289;28;101591;-67
2020/12/14 02:18:30;;;;;;;21.45;14.25;;;;;;;8.88;58.00;100932.19;4985651;28;96850;-67
2020/12/14 02:20:57;;;;;;;18.85;14.20;;;;;;;8.84;57.98;100932.81;4983510;28;96863;-66
2020/12/14 02:23:25;;;;;;;20.40;13.15;;;;;;;8.82;58.23;100926.56;4985454;28;98242;-66
2020/12/14 02:25:53;;;;;;;21.33;15.55;;;;;;;8.82;58.41;100917.00;4984658;28;98025;-66
2020/12/14 02:28:21;;;;;;;22.42;15.50;;;;;;;8.81;58.03;100911.69;4983381;28;97398;-66
2020/12/14 02:30:48;;;;;;;22.67;14.95;;;;;;;8.81;58.54;100909.06;4985958;28;97112;-66
2020/12/14 02:33:16;;;;;;;21.88;14.32;;;;;;;8.82;58.11;100900.38;4986309;28;97904;-67
2020/12/14 02:35:45;;;;;;;17.65;13.93;;;;;;;8.83;57.88;100896.97;4985148;28;98229;-67
2020/12/14 02:38:14;;;;;;;22.52;15.57;;;;;;;8.83;58.11;100892.59;4986836;28;96950;-67
2020/12/14 02:40:41;;;;;;;22.33;15.07;;;;;;;8.84;58.18;100886.56;4988192;28;97296;-67
2020/12/14 02:43:09;;;;;;;20.90;14.30;;;;;;;8.88;57.89;100888.59;4988771;28;97846;-66
2020/12/14 02:45:37;;;;;;;22.58;14.88;;;;;;;8.90;58.09;100886.06;4987730;28;97885;-68
2020/12/14 02:48:04;;;;;;;20.77;14.70;;;;;;;8.89;57.97;100869.41;4987188;28;97362;-68
2020/12/14 02:50:35;;;;;;;22.23;14.73;;;;;;;8.90;57.71;100873.88;4988492;28;97319;-68
2020/12/14 02:53:02;;;;;;;22.80;14.82;;;;;;;8.91;57.92;100870.41;4983709;28;97908;-67
2020/12/14 02:55:30;;;;;;;21.85;14.50;;;;;;;8.92;57.86;100866.09;4988850;28;98083;-67
2020/12/14 02:57:57;;;;;;;20.40;14.75;;;;;;;8.94;57.78;100869.72;4986140;28;96750;-67
2020/12/14 03:00:26;;;;;;;23.05;14.35;;;;;;;8.95;57.57;100859.31;4986040;28;96582;-67
2020/12/14 03:02:53;;;;;;;23.10;15.05;;;;;;;8.96;58.35;100855.88;4986388;28;97796;-66
2020/12/14 03:05:21;;;;;;;23.25;15.43;;;;;;;8.98;57.92;100863.81;4987531;28;96971;-67
2020/12/14 03:07:49;;;;;;;22.70;14.23;;;;;;;8.99;57.58;100857.78;4984781;28;97170;-67
2020/12/14 03:10:17;;;;;;;21.15;14.85;;;;;;;8.99;57.93;100860.41;4984712;28;97654;-67
2020/12/14 03:12:44;;;;;;;20.42;14.23;;;;;;;8.99;58.07;100871.81;4988040;28;98909;-67
2020/12/14 03:15:12;;;;;;;21.35;14.40;;;;;;;9.00;57.74;100865.75;4986786;28;97623;-67
2020/12/14 03:17:41;;;;;;;21.65;15.07;;;;;;;8.99;57.68;100866.56;4988769;28;97178;-67
2020/12/14 03:20:08;;;;;;;19.20;13.15;;;;;;;8.98;57.48;100869.97;4989514;28;96742;-66
2020/12/14 03:22:36;;;;;;;24.05;14.73;;;;;;;8.99;57.73;100860.41;4988277;28;97581;-66
2020/12/14 03:25:21;;;;;;;22.05;14.02;;;;;;;8.97;57.66;100876.03;4985422;28;97327;-66
2020/12/14 03:27:49;;;;;;;21.40;14.18;;;;;;;8.97;57.90;100873.41;4987573;28;96417;-67
2020/12/14 03:30:16;;;;;;;20.80;14.23;;;;;;;8.96;58.26;100862.81;4987473;28;96874;-67
2020/12/14 03:32:45;;;;;;;21.98;14.57;;;;;;;8.95;57.56;100858.41;4985013;28;98996;-67
2020/12/14 03:35:12;;;;;;;22.58;13.98;;;;;;;8.95;57.73;100855.78;4985084;28;99251;-69
2020/12/14 03:37:40;;;;;;;24.52;14.25;;;;;;;8.93;58.17;100846.94;4987974;28;97213;-67
2020/12/14 03:40:07;;;;;;;25.35;15.43;;;;;;;8.92;58.04;100842.53;4983804;28;97178;-68
2020/12/14 03:42:34;;;;;;;22.52;14.88;;;;;;;8.92;57.95;100842.53;4985134;28;97954;-67
2020/12/14 03:45:02;;;;;;;23.50;14.80;;;;;;;8.91;58.19;100848.56;4987532;28;97318;-68
2020/12/14 03:47:30;;;;;;;23.60;13.70;;;;;;;8.92;57.85;100840.78;4983711;28;97430;-67
2020/12/14 03:49:58;;;;;;;20.90;14.52;;;;;;;8.92;58.21;100840.78;4987920;28;96835;-67
2020/12/14 03:52:26;;;;;;;24.58;15.55;;;;;;;8.92;58.05;100840.78;4988166;28;101119;-67
2020/12/14 03:54:53;;;;;;;24.00;14.05;;;;;;;8.93;58.07;100841.69;4987695;28;97040;-66
2020/12/14 03:57:20;;;;;;;24.27;15.20;;;;;;;8.92;57.86;100845.13;4987440;28;97283;-67
2020/12/14 03:59:48;;;;;;;30.48;19.70;;;;;;;9.24;56.88;100842.72;4986299;28;97129;-68
2020/12/14 04:02:15;;;;;;;21.42;14.25;;;;;;;9.09;57.77;100839.16;4987034;28;100634;-67
2020/12/14 04:04:43;;;;;;;20.10;13.50;;;;;;;9.04;58.13;100851.09;4984802;28;96956;-68
2020/12/14 04:07:11;;;;;;;23.85;15.18;;;;;;;9.02;57.63;100842.25;4987670;28;96682;-68
2020/12/14 04:09:39;;;;;;;21.67;13.38;;;;;;;9.01;58.04;100840.44;4987732;28;97003;-68
2020/12/14 04:12:06;;;;;;;30.27;19.42;;;;;;;9.00;57.87;100836.00;4986362;28;98138;-68
2020/12/14 04:14:33;;;;;;;23.83;15.38;;;;;;;8.99;57.75;100832.50;4986101;28;96756;-68
2020/12/14 04:17:19;;;;;;;20.80;13.32;;;;;;;8.97;58.02;100836.75;4987443;28;97234;-68
2020/12/14 04:19:47;;;;;;;21.38;14.00;;;;;;;8.99;57.46;100844.69;4986394;28;97317;-66
2020/12/14 04:22:16;;;;;;;20.63;13.40;;;;;;;8.98;57.54;100835.00;4985086;28;97880;-66
2020/12/14 04:24:43;;;;;;;22.30;14.70;;;;;;;8.99;57.27;100842.97;4986300;28;98876;-67
2020/12/14 04:27:11;;;;;;;24.10;13.95;;;;;;;8.98;57.85;100851.63;5002032;28;97089;-67
2020/12/14 04:29:38;;;;;;;21.00;12.90;;;;;;;8.96;58.00;100847.09;4987195;28;96980;-67
2020/12/14 04:32:06;;;;;;;20.00;12.75;;;;;;;8.96;57.58;100845.41;4988619;28;97803;-66
2020/12/14 04:34:33;;;;;;;21.08;13.80;;;;;;;8.95;57.71;100845.31;4985549;28;97026;-67
2020/12/14 04:37:01;;;;;;;20.60;14.43;;;;;;;8.95;58.12;100840.97;4987346;28;97990;-67
2020/12/14 04:39:29;;;;;;;20.02;13.35;;;;;;;8.95;57.39;100840.06;4984106;28;97480;-68
2020/12/14 04:41:57;;;;;;;19.15;12.23;;;;;;;8.95;57.72;100840.06;4987298;28;97539;-68
2020/12/14 04:44:25;;;;;;;20.42;12.77;;;;;;;8.94;58.18;100833.03;4984046;28;97219;-68
2020/12/14 04:46:52;;;;;;;18.48;12.50;;;;;;;8.94;57.76;100840.91;4988110;28;97065;-68
2020/12/14 04:49:20;;;;;;;19.23;12.07;;;;;;;8.93;58.04;100828.59;4987010;28;97287;-68
2020/12/14 04:51:48;;;;;;;18.35;12.73;;;;;;;8.92;57.94;100838.16;4983780;28;99284;-68
2020/12/14 04:54:16;;;;;;;18.13;12.65;;;;;;;8.90;57.59;100821.47;4984538;28;99191;-69
2020/12/14 04:59:42;;;;;;;15.85;11.48;;;;;;;8.88;57.77;100830.94;4992869;28;99166;-72
2020/12/14 05:02:10;;;;;;;16.83;11.27;;;;;;;8.89;57.97;100831.84;4992413;28;98036;-72
2020/12/14 05:04:39;;;;;;;16.45;11.68;;;;;;;8.89;57.61;100824.88;4996102;28;97730;-74
2020/12/14 05:07:07;;;;;;;16.67;11.68;;;;;;;8.90;57.29;100833.66;5000719;28;97713;-74
2020/12/14 05:09:35;;;;;;;19.77;12.40;;;;;;;8.89;57.63;100837.06;5001078;28;97533;-74
2020/12/14 05:12:16;;;;;;;18.15;12.43;;;;;;;8.88;57.47;100835.28;4998574;28;98124;-74
2020/12/14 05:14:45;;;;;;;17.33;11.32;;;;;;;8.89;57.79;100845.84;4998389;28;99718;-74
2020/12/14 05:17:23;;;;;;;17.92;11.73;;;;;;;8.89;57.88;100839.69;4992938;28;97264;-76
2020/12/14 05:19:50;;;;;;;17.42;11.82;;;;;;;8.88;57.64;100843.13;4999076;28;97017;-75
2020/12/14 05:22:18;;;;;;;16.60;11.27;;;;;;;8.87;57.86;100836.06;4996351;28;98195;-72
2020/12/14 05:24:49;;;;;;;14.93;10.77;;;;;;;8.85;57.78;100841.22;4999469;28;98116;-75
2020/12/14 05:27:32;;;;;;;19.08;11.75;;;;;;;8.84;57.72;100838.50;4994227;28;96934;-73
2020/12/14 05:30:00;;;;;;;14.27;11.65;;;;;;;8.85;57.33;100832.47;4977024;28;97159;-74
2020/12/14 05:32:28;;;;;;;16.23;11.02;;;;;;;8.82;57.88;100833.19;4991266;28;98493;-73
2020/12/14 05:34:56;;;;;;;16.58;11.80;;;;;;;8.82;57.56;100832.28;4993843;28;97899;-73
2020/12/14 05:37:23;;;;;;;13.23;10.93;;;;;;;8.78;57.91;100825.94;4992560;28;96841;-75
2020/12/14 05:39:50;;;;;;;13.00;10.80;;;;;;;8.77;57.57;100823.25;4999893;28;96716;-74
2020/12/14 05:42:20;;;;;;;15.25;10.73;;;;;;;8.74;57.65;100830.94;4998926;28;98105;-74
2020/12/14 05:44:49;;;;;;;16.45;11.23;;;;;;;8.73;57.32;100829.09;4998789;28;96918;-73
2020/12/14 05:47:25;;;;;;;12.93;10.82;;;;;;;8.73;57.26;100834.34;4981536;28;97198;-75
2020/12/14 05:49:54;;;;;;;12.77;10.32;;;;;;;8.72;57.55;100835.16;5003592;28;97234;-74
2020/12/14 05:52:23;;;;;;;13.77;11.05;;;;;;;8.73;57.68;100834.34;4997360;28;97840;-76
2020/12/14 05:54:52;;;;;;;12.70;10.90;;;;;;;8.71;58.11;100828.09;4997640;28;97762;-75
2020/12/14 05:57:27;;;;;;;13.70;11.23;;;;;;;8.68;57.38;100830.53;4997686;28;97259;-75
2020/12/14 06:00:01;;;;;;;13.10;10.00;;;;;;;8.70;57.26;100834.16;4996994;28;97309;-75
2020/12/14 06:02:30;;;;;;;12.13;9.88;;;;;;;8.69;57.49;100825.41;4999954;28;98457;-73
2020/12/14 06:05:02;;;;;;;13.30;10.52;;;;;;;8.70;57.37;100822.00;5003582;28;99075;-71
2020/12/14 06:07:31;;;;;;;12.63;10.40;;;;;;;8.70;57.70;100821.06;4981544;28;96882;-75
2020/12/14 06:10:04;;;;;;;12.15;10.35;;;;;;;8.66;57.48;100808.59;4999403;28;97168;-75
2020/12/14 06:12:32;;;;;;;12.55;10.32;;;;;;;8.65;57.70;100802.44;4988836;28;97852;-75
2020/12/14 06:15:01;;;;;;;11.00;9.55;;;;;;;8.66;57.86;100792.88;4990171;28;98012;-76
2020/12/14 06:17:29;;;;;;;13.65;10.55;;;;;;;8.64;57.69;100794.50;4993338;28;97604;-74
2020/12/14 06:20:17;;;;;;;11.68;10.45;;;;;;;8.64;57.41;100799.75;4992972;28;97249;-74
2020/12/14 06:22:47;;;;;;;12.40;10.13;;;;;;;8.64;57.75;100794.50;4989305;28;97889;-75
2020/12/14 06:25:15;;;;;;;11.20;9.70;;;;;;;8.65;57.58;100801.56;4991253;28;99070;-76
2020/12/14 06:27:43;;;;;;;11.98;10.27;;;;;;;8.67;57.41;100790.34;4995136;28;97697;-74
2020/12/14 06:30:30;;;;;;;11.88;10.60;;;;;;;8.67;57.73;100792.06;4987919;28;97427;-75
2020/12/14 06:32:59;;;;;;;11.73;10.07;;;;;;;8.67;57.60;100792.06;4989991;28;97982;-76
2020/12/14 06:35:47;;;;;;;13.90;10.32;;;;;;;8.66;57.94;100798.13;4998800;28;97394;-76
2020/12/14 06:38:37;;;;;;;12.85;10.07;;;;;;;8.69;57.65;100800.91;5008734;27;96839;-76
2020/12/14 06:41:11;;;;;;;13.57;10.15;;;;;;;8.72;57.42;100801.13;4999474;28;97101;-76
2020/12/14 06:43:39;;;;;;;12.35;10.80;;;;;;;8.75;57.57;100793.44;4998702;28;97919;-76
2020/12/14 06:46:06;;;;;;;18.17;13.70;;;;;;;8.76;57.31;100806.63;4995144;28;98382;-76
2020/12/14 06:48:39;;;;;;;18.38;12.63;;;;;;;8.78;57.11;100798.84;4989731;28;96845;-75
2020/12/14 06:51:08;;;;;;;12.93;10.85;;;;;;;8.83;57.74;100797.44;4997895;28;96643;-76
2020/12/14 06:53:40;;;;;;;11.00;9.73;;;;;;;8.84;56.76;100794.91;4996082;28;97786;-75
2020/12/14 06:56:08;;;;;;;11.18;10.07;;;;;;;8.88;57.44;100796.00;4995274;28;97881;-76
2020/12/14 06:58:40;;;;;;;12.57;10.60;;;;;;;8.88;57.10;100796.91;4974240;28;96913;-77
2020/12/14 07:01:33;;;;;;;11.02;9.30;;;;;;;8.88;57.07;100788.13;4993999;28;97330;-76
2020/12/14 07:04:07;;;;;;;9.35;8.57;;;;;;;8.90;57.15;100783.88;4997484;28;97789;-76
2020/12/14 07:06:34;;;;;;;11.65;9.27;;;;;;;8.93;56.61;100791.91;4989632;28;99114;-76
2020/12/14 07:09:26;;;;;;;10.65;9.65;;;;;;;8.94;57.35;100791.13;4995983;28;97333;-75
2020/12/14 07:11:54;;;;;;;10.32;9.23;;;;;;;8.96;56.94;100789.47;4997634;28;97046;-76
2020/12/14 07:14:29;;;;;;;11.98;9.73;;;;;;;8.97;56.82;100791.28;4995345;28;97841;-74
2020/12/14 07:16:56;;;;;;;16.10;12.65;;;;;;;8.97;57.03;100791.28;4997728;28;98085;-75
2020/12/14 07:19:34;;;;;;;11.27;10.00;;;;;;;8.98;56.85;100787.84;4993706;28;97091;-75
2020/12/14 07:22:02;;;;;;;10.52;9.43;;;;;;;9.00;56.85;100791.47;4993463;28;97202;-76
2020/12/14 07:24:34;;;;;;;11.23;10.05;;;;;;;9.02;57.16;100781.97;4983354;28;97860;-76
2020/12/14 07:27:02;;;;;;;10.35;9.00;;;;;;;9.05;56.97;100790.94;4994217;28;99382;-75
2020/12/14 07:29:30;;;;;;;10.80;9.27;;;;;;;9.05;56.36;100790.94;5003376;28;96798;-76
2020/12/14 07:32:03;;;;;;;10.32;8.77;;;;;;;9.05;56.63;100784.81;5001631;28;97517;-75
2020/12/14 07:34:31;;;;;;;10.88;9.00;;;;;;;9.06;56.64;100787.50;5002214;28;99278;-76
2020/12/14 07:36:59;;;;;;;10.25;9.18;;;;;;;9.09;56.35;100795.53;5004763;28;98183;-74
2020/12/14 07:39:28;;;;;;;10.75;9.65;;;;;;;9.12;56.74;100795.72;4998003;28;98927;-76
2020/12/14 07:41:55;;;;;;;10.60;8.93;;;;;;;9.12;56.41;100786.97;5003613;28;97262;-74
2020/12/14 07:44:26;;;;;;;10.25;9.10;;;;;;;9.16;56.50;100791.53;5002090;28;100560;-74
2020/12/14 07:46:54;;;;;;;11.50;9.73;;;;;;;9.19;56.38;100789.13;5001354;28;97839;-74
2020/12/14 07:49:23;;;;;;;9.93;8.93;;;;;;;9.21;56.26;100784.88;5001619;28;97284;-76
2020/12/14 07:51:51;;;;;;;12.10;9.48;;;;;;;9.24;56.90;100787.66;4990082;28;96813;-74
2020/12/14 07:54:20;;;;;;;11.23;9.93;;;;;;;9.28;56.72;100789.66;4991733;28;99287;-73
2020/12/14 07:56:52;;;;;;;10.45;9.40;;;;;;;9.33;56.52;100788.19;4989790;28;98998;-73
2020/12/14 07:59:22;;;;;;;9.60;8.63;;;;;;;9.31;56.96;100779.34;4997362;28;98146;-74
2020/12/14 08:01:50;;;;;;;11.13;8.90;;;;;;;9.35;56.34;100781.34;5004903;28;97390;-74
2020/12/14 08:04:22;;;;;;;9.27;8.38;;;;;;;9.38;56.53;100786.75;4995792;28;99115;-74
2020/12/14 08:06:50;;;;;;;11.25;10.05;;;;;;;9.42;56.35;100779.97;4993125;28;98023;-75
2020/12/14 08:09:21;;;;;;;10.43;9.05;;;;;;;9.46;56.69;100780.22;4997284;28;97068;-74
2020/12/14 08:11:49;;;;;;;10.70;9.35;;;;;;;9.48;56.18;100783.84;4995312;28;97212;-75
2020/12/14 08:14:18;;;;;;;11.00;9.85;;;;;;;9.52;56.70;100788.47;4997519;28;98287;-75
2020/12/14 08:16:46;;;;;;;11.05;9.77;;;;;;;9.56;56.02;100792.16;5003708;28;99029;-75
2020/12/14 08:19:19;;;;;;;11.63;9.85;;;;;;;9.61;55.95;100788.97;4995969;28;97286;-75
2020/12/14 08:22:00;;;;;;;22.55;14.65;;;;;;;9.63;56.21;100783.81;4994481;28;96506;-74
2020/12/14 08:24:29;;;;;;;11.68;10.07;;;;;;;9.67;55.94;100796.28;4997658;28;98656;-76
2020/12/14 08:27:02;;;;;;;12.32;10.02;;;;;;;9.72;55.93;100795.75;5000594;28;98130;-74
2020/12/14 08:29:30;;;;;;;10.18;8.95;;;;;;;9.77;55.98;100791.66;4996237;28;97431;-76
2020/12/14 08:32:00;;;;;;;10.80;9.00;;;;;;;9.81;56.26;100805.84;4993556;28;97073;-76
2020/12/14 08:34:32;;;;;;;9.82;8.82;;;;;;;9.82;56.24;100792.81;4995285;28;98739;-76
2020/12/14 08:36:59;;;;;;;10.30;9.27;;;;;;;9.85;56.39;100794.72;4994784;28;99462;-74
2020/12/14 08:39:27;;;;;;;8.98;8.07;;;;;;;9.87;56.41;100796.56;4977492;28;97287;-76
2020/12/14 08:42:10;;;;;;;9.82;8.90;;;;;;;9.89;56.18;100788.81;4995476;28;97757;-75
2020/12/14 08:44:38;;;;;;;11.68;9.32;;;;;;;9.91;56.27;100787.16;4995687;28;98900;-77
2020/12/14 08:47:13;;;;;;;10.48;8.75;;;;;;;9.92;56.19;100788.97;4995970;28;97805;-76
2020/12/14 08:50:00;;;;;;;15.90;11.40;;;;;;;9.94;56.09;100780.38;4993623;28;96835;-76
2020/12/14 08:52:28;;;;;;;17.73;12.18;;;;;;;9.99;56.03;100783.25;4994678;28;96836;-76
2020/12/14 08:54:56;;;;;;;10.82;9.13;;;;;;;10.00;55.74;100783.31;4989283;28;97977;-74
2020/12/14 08:57:26;;;;;;;10.88;9.50;;;;;;;10.06;55.33;100778.44;4990226;28;97826;-76
2020/12/14 09:00:15;;;;;;;11.48;9.38;;;;;;;10.10;56.09;100787.41;4999440;28;97012;-76
2020/12/14 09:02:42;;;;;;;11.07;8.85;;;;;;;10.13;55.90;100785.84;4990613;28;97165;-74
2020/12/14 09:05:14;;;;;;;10.30;8.88;;;;;;;10.18;55.03;100792.25;4998517;28;97970;-76
2020/12/14 09:07:42;;;;;;;12.23;9.13;;;;;;;10.24;55.97;100788.16;4992947;28;99222;-74
2020/12/14 09:10:17;;;;;;;10.32;9.25;;;;;;;10.25;55.50;100784.72;4996818;28;97240;-74
2020/12/14 09:12:46;;;;;;;11.35;8.90;;;;;;;10.27;55.67;100791.84;4984167;28;97475;-76
2020/12/14 09:15:30;;;;;;;10.93;9.52;;;;;;;10.33;55.68;100791.28;4995842;28;97846;-76
2020/12/14 09:18:02;;;;;;;13.73;10.07;;;;;;;10.36;55.15;100794.06;4994618;28;98538;-74
2020/12/14 09:20:29;;;;;;;13.43;9.82;;;;;;;10.38;55.41;100782.84;5007771;28;97191;-75
2020/12/14 09:22:57;;;;;;;11.18;9.68;;;;;;;10.38;55.45;100777.59;5004277;28;97533;-75
2020/12/14 09:25:24;;;;;;;12.38;10.52;;;;;;;10.36;55.71;100773.97;4996568;28;97906;-77
2020/12/14 09:27:53;;;;;;;33.83;18.63;;;;;;;10.37;56.03;100791.53;4998652;28;98893;-74
2020/12/14 09:30:20;;;;;;;12.93;10.30;;;;;;;10.38;55.32;100789.81;5001103;28;97256;-75
2020/12/14 09:32:47;;;;;;;11.02;9.73;;;;;;;10.37;55.55;100775.75;4998331;28;96842;-76
2020/12/14 09:35:15;;;;;;;12.20;9.52;;;;;;;10.39;55.72;100783.72;4999701;28;99023;-74
2020/12/14 09:37:43;;;;;;;12.95;9.25;;;;;;;10.41;56.26;100784.69;4997985;28;99244;-74
2020/12/14 09:40:10;;;;;;;10.35;9.30;;;;;;;10.43;55.23;100778.72;4985195;28;97353;-76
2020/12/14 09:42:38;;;;;;;12.73;10.02;;;;;;;10.47;55.27;100778.06;4999206;28;97334;-75
2020/12/14 09:45:06;;;;;;;11.02;9.23;;;;;;;10.48;56.06;100772.00;4994512;28;98029;-75
2020/12/14 09:47:34;;;;;;;10.70;8.95;;;;;;;10.50;55.86;100777.31;4990531;28;99196;-74
2020/12/14 09:50:02;;;;;;;10.60;8.98;;;;;;;10.50;55.41;100772.06;4993259;28;96894;-75
2020/12/14 09:52:29;;;;;;;10.60;8.82;;;;;;;10.53;55.39;100769.63;4971424;28;97210;-75
2020/12/14 09:54:57;;;;;;;10.60;9.50;;;;;;;10.55;56.06;100767.94;4988480;28;99161;-75
2020/12/14 09:57:24;;;;;;;11.00;9.30;;;;;;;10.60;55.66;100763.88;4988994;28;98883;-75
2020/12/14 09:59:51;;;;;;;10.95;9.50;;;;;;;10.64;55.42;100766.72;4987583;28;96928;-76
2020/12/14 10:02:20;;;;;;;11.70;9.23;;;;;;;10.69;55.51;100769.59;4994596;28;97014;-76
2020/12/14 10:04:47;;;;;;;14.65;9.35;;;;;;;10.71;56.05;100763.59;5006325;28;99463;-75
2020/12/14 10:07:15;;;;;;;11.45;9.15;;;;;;;10.78;56.06;100764.81;5001087;28;97804;-73
2020/12/14 10:09:43;;;;;;;12.05;8.95;;;;;;;10.83;55.86;100760.69;4984473;28;96811;-76
2020/12/14 10:12:10;;;;;;;11.68;9.52;;;;;;;10.86;54.93;100768.72;4991331;28;97436;-76
2020/12/14 10:14:38;;;;;;;11.45;10.20;;;;;;;10.93;55.21;100765.63;4993333;28;99319;-76
2020/12/14 10:17:06;;;;;;;11.30;9.55;;;;;;;11.00;55.19;100760.72;4992762;28;97874;-75
2020/12/14 10:19:35;;;;;;;11.40;9.52;;;;;;;11.10;55.04;100772.63;4995874;28;97326;-75
2020/12/14 10:22:02;;;;;;;11.82;9.18;;;;;;;11.17;55.41;100761.59;5003224;28;97219;-75
2020/12/14 10:24:29;;;;;;;11.35;9.35;;;;;;;11.21;54.62;100756.56;4999273;28;98151;-76
2020/12/14 10:26:57;;;;;;;10.73;9.23;;;;;;;11.29;54.60;100753.41;4971718;28;99894;-76
2020/12/14 10:29:24;;;;;;;12.38;9.48;;;;;;;11.32;54.63;100749.19;4990617;28;96731;-75
2020/12/14 10:31:52;;;;;;;11.18;9.10;;;;;;;11.37;54.93;100750.31;4991893;28;97162;-74
2020/12/14 10:34:19;;;;;;;12.88;9.85;;;;;;;11.41;55.00;100752.28;4995012;28;98160;-74
2020/12/14 10:36:48;;;;;;;19.33;12.43;;;;;;;11.47;54.83;100747.34;4991841;28;98920;-76
2020/12/14 10:39:34;;;;;;;21.92;13.23;;;;;;;11.51;54.69;100744.03;4995256;28;96898;-75
2020/12/14 10:42:20;;;;;;;18.25;11.73;;;;;;;11.56;54.49;100739.88;4998754;28;97169;-73
2020/12/14 10:44:47;;;;;;;12.52;8.63;;;;;;;11.60;54.42;100736.59;4999583;28;99081;-75
2020/12/14 10:47:15;;;;;;;12.23;7.97;;;;;;;11.64;54.31;100742.91;4999292;28;96938;-75
2020/12/14 10:49:43;;;;;;;9.55;8.00;;;;;;;11.68;54.40;100737.88;5000017;28;96677;-75
2020/12/14 10:52:11;;;;;;;10.30;7.82;;;;;;;11.72;54.32;100739.81;4993311;28;97615;-76
2020/12/14 10:54:39;;;;;;;11.50;8.15;;;;;;;11.75;53.99;100737.31;4997545;28;98183;-75
2020/12/14 10:57:06;;;;;;;8.02;7.20;;;;;;;11.75;54.02;100739.97;4992103;28;98082;-74
2020/12/14 10:59:34;;;;;;;8.05;7.18;;;;;;;11.78;54.32;100745.38;4996862;28;97698;-76
2020/12/14 11:02:02;;;;;;;9.50;8.27;;;;;;;11.80;53.84;100746.38;4998083;28;98115;-74
2020/12/14 11:04:29;;;;;;;8.93;7.72;;;;;;;11.86;53.99;100740.50;4997455;28;98803;-75
2020/12/14 11:06:57;;;;;;;8.18;7.38;;;;;;;11.87;54.13;100734.38;4998380;28;97841;-74
2020/12/14 11:09:25;;;;;;;9.73;7.88;;;;;;;11.91;53.59;100742.50;4995243;28;97174;-75
2020/12/14 11:11:54;;;;;;;8.75;7.75;;;;;;;11.94;53.92;100736.47;4994751;28;96936;-75
2020/12/14 11:14:21;;;;;;;7.80;7.07;;;;;;;11.95;54.10;100728.63;4996329;28;97879;-75
2020/12/14 11:16:48;;;;;;;11.63;7.97;;;;;;;11.97;53.65;100721.72;4990471;28;97911;-75
2020/12/14 11:19:16;;;;;;;10.18;8.02;;;;;;;11.98;53.82;100728.81;4996704;28;97231;-75
2020/12/14 11:21:44;;;;;;;10.27;7.95;;;;;;;12.01;53.55;100725.38;4996023;28;97126;-74
2020/12/14 11:24:12;;;;;;;11.27;7.38;;;;;;;12.03;53.73;100735.19;5002861;28;98014;-75
2020/12/14 11:26:41;;;;;;;8.55;7.65;;;;;;;12.07;53.74;100723.06;5004639;28;99064;-75
2020/12/14 11:29:09;;;;;;;9.00;7.72;;;;;;;12.08;53.69;100724.84;4997980;28;96773;-75
2020/12/14 11:31:37;;;;;;;10.70;8.05;;;;;;;12.13;53.67;100718.94;5000260;28;97351;-75